CheckWX is a tool to help pilots better visualize weather data.  It is not intended as a substitute for an official pre-flight weather briefing.

21:03:55 UTC

KNCA METAR
New River MCAS / H / / McCutcheon Field / Airport
Jacksonville, North Carolina, USA
Current

1 hour ago

KNCA 231956Z AUTO 33007KT 2 1/2SM DZ BR OVC007 12/10 A3017 RMK AO2 SFC VIS 10 SLP220 T01170100 PNO
Observed
Feb-23 @ 19:56 UTC
Wind
  • 330° at 7 KTS
Visibility
2 1/2 SM
Flight Rules
IFR
Conditions
Drizzle, Mist
Cloud Levels
  • Overcast at 700' AGL
Temperature
12°C / 54°F
Dewpoint
10°C / 50°F
Humidity
88%
Altimeter
30.17" Hg
Pressure
1022 hPa
Previous

2 hours ago

KNCA 231856Z AUTO 07007KT 2 1/2SM DZ BR OVC006 11/10 A3016 RMK AO2 SFC VIS 10 SLP214 T01110100 PNO
Observed
Feb-23 @ 18:56 UTC
Wind
  • 070° at 7 KTS
Visibility
2 1/2 SM
Flight Rules
IFR
Conditions
Drizzle, Mist
Cloud Levels
  • Overcast at 600' AGL
Temperature
11°C / 52°F
Dewpoint
10°C / 50°F
Humidity
94%
Altimeter
30.16" Hg
Pressure
1021.4 hPa
Previous

3 hours ago

KNCA 231756Z AUTO 02007KT 2 1/2SM DZ BR OVC006 10/09 A3021 RMK AO2 SFC VIS 10 SLP231 6//// T01000089 10100 20072 58028 PNO
Observed
Feb-23 @ 17:56 UTC
Wind
  • 020° at 7 KTS
Visibility
2 1/2 SM
Flight Rules
IFR
Conditions
Drizzle, Mist
Cloud Levels
  • Overcast at 600' AGL
Temperature
10°C / 50°F
Dewpoint
C / 48°F
Humidity
94%
Altimeter
30.21" Hg
Pressure
1023.1 hPa